sensor_id;sensor_type;location;lat;lon;timestamp;P1;durP1;ratioP1;P2;durP2;ratioP2
54787;SDS011;59598;48.112;16.280;2023-09-12T00:01:18;11.25;;;5.15;;
54787;SDS011;59598;48.112;16.280;2023-09-12T00:03:51;5.82;;;4.72;;
54787;SDS011;59598;48.112;16.280;2023-09-12T00:06:22;7.35;;;5.50;;
54787;SDS011;59598;48.112;16.280;2023-09-12T00:08:54;6.93;;;5.13;;
54787;SDS011;59598;48.112;16.280;2023-09-12T00:11:27;6.90;;;4.83;;
54787;SDS011;59598;48.112;16.280;2023-09-12T00:13:58;8.05;;;4.85;;
54787;SDS011;59598;48.112;16.280;2023-09-12T00:16:32;7.38;;;4.45;;
54787;SDS011;59598;48.112;16.280;2023-09-12T00:19:03;6.90;;;4.70;;
54787;SDS011;59598;48.112;16.280;2023-09-12T00:21:34;5.28;;;4.78;;
54787;SDS011;59598;48.112;16.280;2023-09-12T00:24:08;5.57;;;4.47;;
54787;SDS011;59598;48.112;16.280;2023-09-12T00:26:42;6.00;;;5.30;;
54787;SDS011;59598;48.112;16.280;2023-09-12T00:29:13;6.35;;;5.43;;
54787;SDS011;59598;48.112;16.280;2023-09-12T00:31:46;9.40;;;4.78;;
54787;SDS011;59598;48.112;16.280;2023-09-12T00:34:17;6.45;;;4.97;;
54787;SDS011;59598;48.112;16.280;2023-09-12T00:36:49;8.07;;;5.97;;
54787;SDS011;59598;48.112;16.280;2023-09-12T00:39:20;5.95;;;4.90;;
54787;SDS011;59598;48.112;16.280;2023-09-12T00:41:51;6.25;;;5.28;;
54787;SDS011;59598;48.112;16.280;2023-09-12T00:44:25;6.82;;;5.03;;
54787;SDS011;59598;48.112;16.280;2023-09-12T00:47:01;6.10;;;5.20;;
54787;SDS011;59598;48.112;16.280;2023-09-12T00:49:34;8.23;;;5.72;;
54787;SDS011;59598;48.112;16.280;2023-09-12T00:54:42;7.03;;;6.00;;
54787;SDS011;59598;48.112;16.280;2023-09-12T00:57:14;6.45;;;4.88;;
54787;SDS011;59598;48.112;16.280;2023-09-12T00:59:45;5.85;;;4.75;;
54787;SDS011;59598;48.112;16.280;2023-09-12T01:04:52;7.53;;;5.18;;
54787;SDS011;59598;48.112;16.280;2023-09-12T01:07:26;6.82;;;5.45;;
54787;SDS011;59598;48.112;16.280;2023-09-12T01:09:59;9.65;;;5.47;;
54787;SDS011;59598;48.112;16.280;2023-09-12T01:12:30;8.35;;;4.88;;
54787;SDS011;59598;48.112;16.280;2023-09-12T01:15:02;6.18;;;4.85;;
54787;SDS011;59598;48.112;16.280;2023-09-12T01:17:44;7.60;;;5.45;;
54787;SDS011;59598;48.112;16.280;2023-09-12T01:20:19;6.80;;;5.32;;
54787;SDS011;59598;48.112;16.280;2023-09-12T01:22:59;7.07;;;5.45;;
54787;SDS011;59598;48.112;16.280;2023-09-12T01:28:40;8.48;;;5.43;;
54787;SDS011;59598;48.112;16.280;2023-09-12T01:31:13;7.32;;;5.35;;
54787;SDS011;59598;48.112;16.280;2023-09-12T01:33:47;6.22;;;5.55;;
54787;SDS011;59598;48.112;16.280;2023-09-12T01:36:18;7.40;;;5.47;;
54787;SDS011;59598;48.112;16.280;2023-09-12T01:38:52;10.68;;;5.45;;
54787;SDS011;59598;48.112;16.280;2023-09-12T01:41:26;5.80;;;5.07;;
54787;SDS011;59598;48.112;16.280;2023-09-12T01:43:59;7.43;;;5.13;;
54787;SDS011;59598;48.112;16.280;2023-09-12T01:46:36;8.13;;;5.50;;
54787;SDS011;59598;48.112;16.280;2023-09-12T01:49:11;6.30;;;4.97;;
54787;SDS011;59598;48.112;16.280;2023-09-12T01:51:45;7.53;;;5.78;;
54787;SDS011;59598;48.112;16.280;2023-09-12T01:54:16;6.90;;;5.63;;
54787;SDS011;59598;48.112;16.280;2023-09-12T01:56:48;5.90;;;5.30;;
54787;SDS011;59598;48.112;16.280;2023-09-12T01:59:22;5.72;;;5.00;;
54787;SDS011;59598;48.112;16.280;2023-09-12T02:01:59;6.80;;;5.22;;
54787;SDS011;59598;48.112;16.280;2023-09-12T02:04:30;7.75;;;5.82;;
54787;SDS011;59598;48.112;16.280;2023-09-12T02:07:04;7.60;;;6.18;;
54787;SDS011;59598;48.112;16.280;2023-09-12T02:09:41;8.65;;;5.75;;
54787;SDS011;59598;48.112;16.280;2023-09-12T02:12:15;6.45;;;5.35;;
54787;SDS011;59598;48.112;16.280;2023-09-12T02:14:46;6.78;;;5.22;;
54787;SDS011;59598;48.112;16.280;2023-09-12T02:17:17;6.75;;;5.25;;
54787;SDS011;59598;48.112;16.280;2023-09-12T02:19:49;8.82;;;5.72;;
54787;SDS011;59598;48.112;16.280;2023-09-12T02:22:27;10.32;;;5.65;;
54787;SDS011;59598;48.112;16.280;2023-09-12T02:24:58;6.83;;;5.63;;
54787;SDS011;59598;48.112;16.280;2023-09-12T02:27:29;7.40;;;5.88;;
54787;SDS011;59598;48.112;16.280;2023-09-12T02:30:01;6.40;;;4.97;;
54787;SDS011;59598;48.112;16.280;2023-09-12T02:32:33;6.60;;;5.32;;
54787;SDS011;59598;48.112;16.280;2023-09-12T02:35:05;6.75;;;5.45;;
54787;SDS011;59598;48.112;16.280;2023-09-12T02:37:37;8.13;;;6.28;;
54787;SDS011;59598;48.112;16.280;2023-09-12T02:40:08;6.28;;;5.47;;
54787;SDS011;59598;48.112;16.280;2023-09-12T02:42:44;9.05;;;6.35;;
54787;SDS011;59598;48.112;16.280;2023-09-12T02:45:16;6.55;;;5.68;;
54787;SDS011;59598;48.112;16.280;2023-09-12T02:47:48;6.57;;;5.32;;
54787;SDS011;59598;48.112;16.280;2023-09-12T02:50:19;7.15;;;5.88;;
54787;SDS011;59598;48.112;16.280;2023-09-12T02:53:11;8.68;;;6.18;;
54787;SDS011;59598;48.112;16.280;2023-09-12T02:55:42;9.27;;;6.30;;
54787;SDS011;59598;48.112;16.280;2023-09-12T02:58:13;8.95;;;5.88;;
54787;SDS011;59598;48.112;16.280;2023-09-12T03:00:44;8.48;;;5.97;;
54787;SDS011;59598;48.112;16.280;2023-09-12T03:03:16;9.40;;;6.68;;
54787;SDS011;59598;48.112;16.280;2023-09-12T03:05:47;7.40;;;6.05;;
54787;SDS011;59598;48.112;16.280;2023-09-12T03:08:18;7.88;;;5.90;;
54787;SDS011;59598;48.112;16.280;2023-09-12T03:10:55;9.98;;;6.93;;
54787;SDS011;59598;48.112;16.280;2023-09-12T03:13:27;7.82;;;5.88;;
54787;SDS011;59598;48.112;16.280;2023-09-12T03:16:01;9.35;;;6.10;;
54787;SDS011;59598;48.112;16.280;2023-09-12T03:18:33;8.60;;;5.88;;
54787;SDS011;59598;48.112;16.280;2023-09-12T03:21:04;8.23;;;6.57;;
54787;SDS011;59598;48.112;16.280;2023-09-12T03:23:35;11.13;;;7.10;;
54787;SDS011;59598;48.112;16.280;2023-09-12T03:26:07;7.90;;;6.38;;
54787;SDS011;59598;48.112;16.280;2023-09-12T03:28:38;7.75;;;6.22;;
54787;SDS011;59598;48.112;16.280;2023-09-12T03:31:10;9.27;;;6.57;;
54787;SDS011;59598;48.112;16.280;2023-09-12T03:33:43;7.88;;;6.80;;
54787;SDS011;59598;48.112;16.280;2023-09-12T03:36:19;9.95;;;6.68;;
54787;SDS011;59598;48.112;16.280;2023-09-12T03:38:52;10.00;;;7.05;;
54787;SDS011;59598;48.112;16.280;2023-09-12T03:41:23;8.70;;;6.90;;
54787;SDS011;59598;48.112;16.280;2023-09-12T03:43:56;9.43;;;6.47;;
54787;SDS011;59598;48.112;16.280;2023-09-12T03:46:28;10.40;;;6.40;;
54787;SDS011;59598;48.112;16.280;2023-09-12T03:49:01;9.10;;;6.18;;
54787;SDS011;59598;48.112;16.280;2023-09-12T03:51:33;11.02;;;6.97;;
54787;SDS011;59598;48.112;16.280;2023-09-12T03:54:08;9.93;;;6.80;;
54787;SDS011;59598;48.112;16.280;2023-09-12T03:56:39;10.60;;;7.10;;
54787;SDS011;59598;48.112;16.280;2023-09-12T03:59:13;10.63;;;6.83;;
54787;SDS011;59598;48.112;16.280;2023-09-12T04:01:47;8.70;;;7.50;;
54787;SDS011;59598;48.112;16.280;2023-09-12T04:04:18;8.18;;;6.82;;
54787;SDS011;59598;48.112;16.280;2023-09-12T04:06:49;9.68;;;7.18;;
54787;SDS011;59598;48.112;16.280;2023-09-12T04:09:20;10.27;;;7.18;;
54787;SDS011;59598;48.112;16.280;2023-09-12T04:11:52;9.30;;;6.88;;
54787;SDS011;59598;48.112;16.280;2023-09-12T04:14:23;10.48;;;7.43;;
54787;SDS011;59598;48.112;16.280;2023-09-12T04:16:57;11.20;;;7.38;;
54787;SDS011;59598;48.112;16.280;2023-09-12T04:19:30;11.15;;;7.35;;
54787;SDS011;59598;48.112;16.280;2023-09-12T04:22:04;12.13;;;7.53;;
54787;SDS011;59598;48.112;16.280;2023-09-12T04:24:36;10.05;;;6.82;;
54787;SDS011;59598;48.112;16.280;2023-09-12T04:27:09;6.70;;;5.47;;
54787;SDS011;59598;48.112;16.280;2023-09-12T04:29:43;7.40;;;6.60;;
54787;SDS011;59598;48.112;16.280;2023-09-12T04:32:15;9.23;;;7.07;;
54787;SDS011;59598;48.112;16.280;2023-09-12T04:34:53;12.10;;;7.10;;
54787;SDS011;59598;48.112;16.280;2023-09-12T04:37:27;10.20;;;6.97;;
54787;SDS011;59598;48.112;16.280;2023-09-12T04:39:59;10.05;;;7.55;;
54787;SDS011;59598;48.112;16.280;2023-09-12T04:42:35;10.43;;;7.10;;
54787;SDS011;59598;48.112;16.280;2023-09-12T04:45:07;9.45;;;7.47;;
54787;SDS011;59598;48.112;16.280;2023-09-12T04:50:12;12.02;;;7.22;;
54787;SDS011;59598;48.112;16.280;2023-09-12T04:52:43;9.68;;;7.30;;
54787;SDS011;59598;48.112;16.280;2023-09-12T04:55:14;10.23;;;6.90;;
54787;SDS011;59598;48.112;16.280;2023-09-12T04:57:49;11.40;;;6.95;;
54787;SDS011;59598;48.112;16.280;2023-09-12T05:00:22;10.48;;;7.82;;
54787;SDS011;59598;48.112;16.280;2023-09-12T05:02:53;9.32;;;7.22;;
54787;SDS011;59598;48.112;16.280;2023-09-12T05:05:24;8.20;;;6.47;;
54787;SDS011;59598;48.112;16.280;2023-09-12T05:07:58;10.13;;;6.87;;
54787;SDS011;59598;48.112;16.280;2023-09-12T05:10:31;7.82;;;6.63;;
54787;SDS011;59598;48.112;16.280;2023-09-12T05:13:02;7.60;;;6.78;;
54787;SDS011;59598;48.112;16.280;2023-09-12T05:15:33;11.18;;;6.35;;
54787;SDS011;59598;48.112;16.280;2023-09-12T05:18:07;10.55;;;6.93;;
54787;SDS011;59598;48.112;16.280;2023-09-12T05:20:39;10.02;;;7.13;;
54787;SDS011;59598;48.112;16.280;2023-09-12T05:23:12;13.53;;;8.13;;
54787;SDS011;59598;48.112;16.280;2023-09-12T05:25:44;8.90;;;6.97;;
54787;SDS011;59598;48.112;16.280;2023-09-12T05:28:17;7.85;;;6.50;;
54787;SDS011;59598;48.112;16.280;2023-09-12T05:30:51;7.20;;;5.97;;
54787;SDS011;59598;48.112;16.280;2023-09-12T05:33:25;13.18;;;6.78;;
54787;SDS011;59598;48.112;16.280;2023-09-12T05:35:57;10.73;;;7.25;;
54787;SDS011;59598;48.112;16.280;2023-09-12T05:38:28;9.27;;;6.55;;
54787;SDS011;59598;48.112;16.280;2023-09-12T05:40:59;10.75;;;6.20;;
54787;SDS011;59598;48.112;16.280;2023-09-12T05:43:33;9.95;;;6.38;;
54787;SDS011;59598;48.112;16.280;2023-09-12T05:46:04;8.18;;;6.35;;
54787;SDS011;59598;48.112;16.280;2023-09-12T05:48:38;7.55;;;5.97;;
54787;SDS011;59598;48.112;16.280;2023-09-12T05:51:11;9.40;;;5.75;;
54787;SDS011;59598;48.112;16.280;2023-09-12T05:53:45;7.55;;;5.55;;
54787;SDS011;59598;48.112;16.280;2023-09-12T05:56:16;8.82;;;6.63;;
54787;SDS011;59598;48.112;16.280;2023-09-12T05:58:50;9.05;;;6.20;;
54787;SDS011;59598;48.112;16.280;2023-09-12T06:01:25;8.77;;;6.80;;
54787;SDS011;59598;48.112;16.280;2023-09-12T06:03:56;9.93;;;7.15;;
54787;SDS011;59598;48.112;16.280;2023-09-12T06:06:28;12.40;;;7.50;;
54787;SDS011;59598;48.112;16.280;2023-09-12T06:08:59;9.07;;;6.55;;
54787;SDS011;59598;48.112;16.280;2023-09-12T06:11:32;8.50;;;6.70;;
54787;SDS011;59598;48.112;16.280;2023-09-12T06:14:04;11.20;;;7.97;;
54787;SDS011;59598;48.112;16.280;2023-09-12T06:16:39;9.52;;;7.75;;
54787;SDS011;59598;48.112;16.280;2023-09-12T06:19:14;12.80;;;7.60;;
54787;SDS011;59598;48.112;16.280;2023-09-12T06:21:50;9.10;;;7.45;;
54787;SDS011;59598;48.112;16.280;2023-09-12T06:24:26;9.98;;;7.30;;
54787;SDS011;59598;48.112;16.280;2023-09-12T06:27:01;10.10;;;8.10;;
54787;SDS011;59598;48.112;16.280;2023-09-12T06:29:32;11.13;;;7.15;;
54787;SDS011;59598;48.112;16.280;2023-09-12T06:32:03;10.82;;;6.88;;
54787;SDS011;59598;48.112;16.280;2023-09-12T06:34:35;11.05;;;6.43;;
54787;SDS011;59598;48.112;16.280;2023-09-12T06:37:08;9.60;;;6.95;;
54787;SDS011;59598;48.112;16.280;2023-09-12T06:39:41;8.00;;;7.05;;
54787;SDS011;59598;48.112;16.280;2023-09-12T06:42:12;12.20;;;7.20;;
54787;SDS011;59598;48.112;16.280;2023-09-12T06:44:43;14.70;;;6.93;;
54787;SDS011;59598;48.112;16.280;2023-09-12T06:47:14;7.63;;;5.88;;
54787;SDS011;59598;48.112;16.280;2023-09-12T06:49:46;8.82;;;7.75;;
54787;SDS011;59598;48.112;16.280;2023-09-12T06:52:19;10.90;;;7.25;;
54787;SDS011;59598;48.112;16.280;2023-09-12T06:54:51;9.77;;;7.50;;
54787;SDS011;59598;48.112;16.280;2023-09-12T06:57:24;16.98;;;7.65;;
54787;SDS011;59598;48.112;16.280;2023-09-12T06:59:59;10.25;;;6.88;;
54787;SDS011;59598;48.112;16.280;2023-09-12T07:02:31;11.70;;;6.95;;
54787;SDS011;59598;48.112;16.280;2023-09-12T07:05:05;9.35;;;7.53;;
54787;SDS011;59598;48.112;16.280;2023-09-12T07:07:36;11.85;;;8.32;;
54787;SDS011;59598;48.112;16.280;2023-09-12T07:10:08;14.07;;;8.50;;
54787;SDS011;59598;48.112;16.280;2023-09-12T07:12:39;9.07;;;7.78;;
54787;SDS011;59598;48.112;16.280;2023-09-12T07:15:10;10.65;;;7.20;;
54787;SDS011;59598;48.112;16.280;2023-09-12T07:17:41;9.57;;;6.88;;
54787;SDS011;59598;48.112;16.280;2023-09-12T07:20:12;12.25;;;7.43;;
54787;SDS011;59598;48.112;16.280;2023-09-12T07:22:44;10.02;;;7.00;;
54787;SDS011;59598;48.112;16.280;2023-09-12T07:25:15;10.23;;;7.40;;
54787;SDS011;59598;48.112;16.280;2023-09-12T07:27:48;9.95;;;6.55;;
54787;SDS011;59598;48.112;16.280;2023-09-12T07:30:23;10.48;;;6.75;;
54787;SDS011;59598;48.112;16.280;2023-09-12T07:32:54;9.82;;;7.25;;
54787;SDS011;59598;48.112;16.280;2023-09-12T07:35:25;9.48;;;7.45;;
54787;SDS011;59598;48.112;16.280;2023-09-12T07:38:01;8.38;;;6.72;;
54787;SDS011;59598;48.112;16.280;2023-09-12T07:40:34;7.83;;;6.43;;
54787;SDS011;59598;48.112;16.280;2023-09-12T07:43:05;11.57;;;7.05;;
54787;SDS011;59598;48.112;16.280;2023-09-12T07:45:37;11.52;;;6.85;;
54787;SDS011;59598;48.112;16.280;2023-09-12T07:48:09;9.18;;;7.22;;
54787;SDS011;59598;48.112;16.280;2023-09-12T07:50:41;11.82;;;7.35;;
54787;SDS011;59598;48.112;16.280;2023-09-12T07:53:13;9.52;;;7.03;;
54787;SDS011;59598;48.112;16.280;2023-09-12T07:55:46;9.68;;;7.07;;
54787;SDS011;59598;48.112;16.280;2023-09-12T07:58:18;9.35;;;7.00;;
54787;SDS011;59598;48.112;16.280;2023-09-12T08:00:52;10.38;;;7.88;;
54787;SDS011;59598;48.112;16.280;2023-09-12T08:03:23;10.77;;;7.05;;
54787;SDS011;59598;48.112;16.280;2023-09-12T08:05:55;9.73;;;6.65;;
54787;SDS011;59598;48.112;16.280;2023-09-12T08:08:30;9.70;;;7.20;;
54787;SDS011;59598;48.112;16.280;2023-09-12T08:11:01;9.23;;;7.35;;
54787;SDS011;59598;48.112;16.280;2023-09-12T08:13:32;12.60;;;6.80;;
54787;SDS011;59598;48.112;16.280;2023-09-12T08:16:04;10.90;;;7.00;;
54787;SDS011;59598;48.112;16.280;2023-09-12T08:18:35;13.73;;;6.45;;
54787;SDS011;59598;48.112;16.280;2023-09-12T08:21:06;11.07;;;7.13;;
54787;SDS011;59598;48.112;16.280;2023-09-12T08:23:37;10.88;;;6.93;;
54787;SDS011;59598;48.112;16.280;2023-09-12T08:26:09;10.50;;;6.55;;
54787;SDS011;59598;48.112;16.280;2023-09-12T08:28:41;11.65;;;6.47;;
54787;SDS011;59598;48.112;16.280;2023-09-12T08:31:15;9.50;;;6.75;;
54787;SDS011;59598;48.112;16.280;2023-09-12T08:33:46;8.88;;;6.72;;
54787;SDS011;59598;48.112;16.280;2023-09-12T08:38:51;10.63;;;6.68;;
54787;SDS011;59598;48.112;16.280;2023-09-12T08:41:22;7.75;;;6.78;;
54787;SDS011;59598;48.112;16.280;2023-09-12T08:43:53;11.18;;;7.40;;
54787;SDS011;59598;48.112;16.280;2023-09-12T08:46:26;11.82;;;7.97;;
54787;SDS011;59598;48.112;16.280;2023-09-12T08:48:58;13.40;;;7.63;;
54787;SDS011;59598;48.112;16.280;2023-09-12T08:51:32;9.60;;;6.90;;
54787;SDS011;59598;48.112;16.280;2023-09-12T08:54:04;11.40;;;6.88;;
54787;SDS011;59598;48.112;16.280;2023-09-12T08:56:36;9.63;;;7.57;;
54787;SDS011;59598;48.112;16.280;2023-09-12T08:59:12;13.00;;;6.72;;
54787;SDS011;59598;48.112;16.280;2023-09-12T09:01:43;10.65;;;7.50;;
54787;SDS011;59598;48.112;16.280;2023-09-12T09:04:15;12.93;;;7.68;;
54787;SDS011;59598;48.112;16.280;2023-09-12T09:06:50;9.77;;;6.10;;
54787;SDS011;59598;48.112;16.280;2023-09-12T09:09:21;11.23;;;7.28;;
54787;SDS011;59598;48.112;16.280;2023-09-12T09:11:53;9.50;;;7.55;;
54787;SDS011;59598;48.112;16.280;2023-09-12T09:14:24;8.85;;;7.20;;
54787;SDS011;59598;48.112;16.280;2023-09-12T09:16:58;10.40;;;6.35;;
54787;SDS011;59598;48.112;16.280;2023-09-12T09:19:41;15.93;;;7.18;;
54787;SDS011;59598;48.112;16.280;2023-09-12T09:22:14;9.45;;;6.45;;
54787;SDS011;59598;48.112;16.280;2023-09-12T09:24:47;10.82;;;7.38;;
54787;SDS011;59598;48.112;16.280;2023-09-12T09:27:34;10.32;;;7.18;;
54787;SDS011;59598;48.112;16.280;2023-09-12T09:30:05;8.15;;;6.95;;
54787;SDS011;59598;48.112;16.280;2023-09-12T09:32:37;8.95;;;6.43;;
54787;SDS011;59598;48.112;16.280;2023-09-12T09:35:09;9.02;;;7.00;;
54787;SDS011;59598;48.112;16.280;2023-09-12T09:37:41;8.98;;;6.38;;
54787;SDS011;59598;48.112;16.280;2023-09-12T09:40:12;11.48;;;6.90;;
54787;SDS011;59598;48.112;16.280;2023-09-12T09:42:46;11.38;;;6.78;;
54787;SDS011;59598;48.112;16.280;2023-09-12T09:45:20;8.13;;;6.57;;
54787;SDS011;59598;48.112;16.280;2023-09-12T09:47:53;7.80;;;6.03;;
54787;SDS011;59598;48.112;16.280;2023-09-12T09:50:29;7.35;;;6.55;;
54787;SDS011;59598;48.112;16.280;2023-09-12T09:53:00;8.88;;;6.28;;
54787;SDS011;59598;48.112;16.280;2023-09-12T09:55:32;11.35;;;6.32;;
54787;SDS011;59598;48.112;16.280;2023-09-12T09:58:06;9.60;;;6.70;;
54787;SDS011;59598;48.112;16.280;2023-09-12T10:00:37;8.20;;;6.53;;
54787;SDS011;59598;48.112;16.280;2023-09-12T10:03:09;7.75;;;6.05;;
54787;SDS011;59598;48.112;16.280;2023-09-12T10:05:41;8.57;;;6.13;;
54787;SDS011;59598;48.112;16.280;2023-09-12T10:08:16;7.10;;;6.40;;
54787;SDS011;59598;48.112;16.280;2023-09-12T10:10:49;7.70;;;6.05;;
54787;SDS011;59598;48.112;16.280;2023-09-12T10:13:22;11.93;;;6.87;;
54787;SDS011;59598;48.112;16.280;2023-09-12T10:15:58;8.27;;;6.32;;
54787;SDS011;59598;48.112;16.280;2023-09-12T10:18:33;9.07;;;6.15;;
54787;SDS011;59598;48.112;16.280;2023-09-12T10:21:14;7.25;;;5.50;;
54787;SDS011;59598;48.112;16.280;2023-09-12T10:23:54;7.35;;;5.78;;
54787;SDS011;59598;48.112;16.280;2023-09-12T10:26:30;7.75;;;6.43;;
54787;SDS011;59598;48.112;16.280;2023-09-12T10:29:02;6.38;;;5.78;;
54787;SDS011;59598;48.112;16.280;2023-09-12T10:31:34;7.32;;;6.20;;
54787;SDS011;59598;48.112;16.280;2023-09-12T10:34:06;10.88;;;5.93;;
54787;SDS011;59598;48.112;16.280;2023-09-12T10:36:40;7.03;;;5.90;;
54787;SDS011;59598;48.112;16.280;2023-09-12T10:39:18;8.05;;;6.05;;
54787;SDS011;59598;48.112;16.280;2023-09-12T10:41:51;6.90;;;5.88;;
54787;SDS011;59598;48.112;16.280;2023-09-12T10:44:23;7.22;;;5.82;;
54787;SDS011;59598;48.112;16.280;2023-09-12T10:46:55;8.63;;;5.85;;
54787;SDS011;59598;48.112;16.280;2023-09-12T10:49:30;7.00;;;5.80;;
54787;SDS011;59598;48.112;16.280;2023-09-12T10:52:02;7.20;;;5.88;;
54787;SDS011;59598;48.112;16.280;2023-09-12T10:54:37;12.15;;;6.68;;
54787;SDS011;59598;48.112;16.280;2023-09-12T10:57:10;9.88;;;6.25;;
54787;SDS011;59598;48.112;16.280;2023-09-12T11:00:09;9.38;;;6.03;;
54787;SDS011;59598;48.112;16.280;2023-09-12T11:02:43;13.73;;;5.50;;
54787;SDS011;59598;48.112;16.280;2023-09-12T11:08:00;8.25;;;5.72;;
54787;SDS011;59598;48.112;16.280;2023-09-12T11:10:32;7.55;;;5.85;;
54787;SDS011;59598;48.112;16.280;2023-09-12T11:13:06;6.93;;;5.53;;
54787;SDS011;59598;48.112;16.280;2023-09-12T11:21:59;6.03;;;5.45;;
54787;SDS011;59598;48.112;16.280;2023-09-12T11:24:30;8.15;;;5.85;;
54787;SDS011;59598;48.112;16.280;2023-09-12T11:27:14;5.50;;;4.93;;
54787;SDS011;59598;48.112;16.280;2023-09-12T11:29:46;6.97;;;5.35;;
54787;SDS011;59598;48.112;16.280;2023-09-12T11:32:25;10.43;;;5.47;;
54787;SDS011;59598;48.112;16.280;2023-09-12T11:34:59;7.88;;;5.28;;
54787;SDS011;59598;48.112;16.280;2023-09-12T11:37:34;6.72;;;5.20;;
54787;SDS011;59598;48.112;16.280;2023-09-12T11:42:47;5.72;;;5.13;;
54787;SDS011;59598;48.112;16.280;2023-09-12T11:45:21;12.98;;;5.82;;
54787;SDS011;59598;48.112;16.280;2023-09-12T11:50:30;6.97;;;5.53;;
54787;SDS011;59598;48.112;16.280;2023-09-12T11:53:06;6.32;;;5.28;;
54787;SDS011;59598;48.112;16.280;2023-09-12T11:55:44;6.43;;;5.28;;
54787;SDS011;59598;48.112;16.280;2023-09-12T11:58:24;5.72;;;5.10;;
54787;SDS011;59598;48.112;16.280;2023-09-12T12:00:59;7.32;;;5.00;;
54787;SDS011;59598;48.112;16.280;2023-09-12T12:03:33;5.78;;;4.68;;
54787;SDS011;59598;48.112;16.280;2023-09-12T12:06:10;5.85;;;5.22;;
54787;SDS011;59598;48.112;16.280;2023-09-12T12:08:41;6.10;;;5.00;;
54787;SDS011;59598;48.112;16.280;2023-09-12T12:11:13;6.70;;;5.28;;
54787;SDS011;59598;48.112;16.280;2023-09-12T12:13:47;6.18;;;5.07;;
54787;SDS011;59598;48.112;16.280;2023-09-12T12:16:19;7.85;;;4.82;;
54787;SDS011;59598;48.112;16.280;2023-09-12T12:18:50;8.38;;;4.75;;
54787;SDS011;59598;48.112;16.280;2023-09-12T12:21:26;5.82;;;5.22;;
54787;SDS011;59598;48.112;16.280;2023-09-12T12:23:59;8.38;;;5.00;;
54787;SDS011;59598;48.112;16.280;2023-09-12T12:26:34;5.73;;;4.80;;
54787;SDS011;59598;48.112;16.280;2023-09-12T12:29:05;6.13;;;5.53;;
54787;SDS011;59598;48.112;16.280;2023-09-12T12:31:39;5.43;;;4.88;;
54787;SDS011;59598;48.112;16.280;2023-09-12T12:34:15;5.25;;;4.80;;
54787;SDS011;59598;48.112;16.280;2023-09-12T12:36:53;5.85;;;4.80;;
54787;SDS011;59598;48.112;16.280;2023-09-12T12:39:25;5.55;;;4.63;;
54787;SDS011;59598;48.112;16.280;2023-09-12T12:41:56;7.53;;;5.35;;
54787;SDS011;59598;48.112;16.280;2023-09-12T12:44:34;5.70;;;5.05;;
54787;SDS011;59598;48.112;16.280;2023-09-12T12:47:08;6.72;;;5.20;;
54787;SDS011;59598;48.112;16.280;2023-09-12T12:49:40;5.50;;;5.00;;
54787;SDS011;59598;48.112;16.280;2023-09-12T12:52:11;8.00;;;5.13;;
54787;SDS011;59598;48.112;16.280;2023-09-12T12:54:43;7.00;;;5.10;;
54787;SDS011;59598;48.112;16.280;2023-09-12T12:57:18;7.20;;;4.65;;
54787;SDS011;59598;48.112;16.280;2023-09-12T12:59:50;5.45;;;4.78;;
54787;SDS011;59598;48.112;16.280;2023-09-12T13:02:21;7.65;;;4.90;;
54787;SDS011;59598;48.112;16.280;2023-09-12T13:04:52;6.50;;;4.78;;
54787;SDS011;59598;48.112;16.280;2023-09-12T13:07:24;4.97;;;4.30;;
54787;SDS011;59598;48.112;16.280;2023-09-12T13:09:57;4.95;;;4.45;;
54787;SDS011;59598;48.112;16.280;2023-09-12T13:12:28;5.68;;;4.72;;
54787;SDS011;59598;48.112;16.280;2023-09-12T13:15:00;5.90;;;4.63;;
54787;SDS011;59598;48.112;16.280;2023-09-12T13:17:32;8.02;;;4.88;;
54787;SDS011;59598;48.112;16.280;2023-09-12T13:20:03;4.97;;;4.53;;
54787;SDS011;59598;48.112;16.280;2023-09-12T13:22:39;6.55;;;4.57;;
54787;SDS011;59598;48.112;16.280;2023-09-12T13:25:10;6.03;;;4.55;;
54787;SDS011;59598;48.112;16.280;2023-09-12T13:27:45;7.20;;;5.00;;
54787;SDS011;59598;48.112;16.280;2023-09-12T13:30:18;6.25;;;4.90;;
54787;SDS011;59598;48.112;16.280;2023-09-12T13:32:50;7.13;;;5.25;;
54787;SDS011;59598;48.112;16.280;2023-09-12T13:35:24;6.82;;;4.43;;
54787;SDS011;59598;48.112;16.280;2023-09-12T13:40:31;6.13;;;4.72;;
54787;SDS011;59598;48.112;16.280;2023-09-12T13:43:02;7.25;;;4.72;;
54787;SDS011;59598;48.112;16.280;2023-09-12T13:45:34;4.30;;;3.88;;
54787;SDS011;59598;48.112;16.280;2023-09-12T13:48:06;7.45;;;5.25;;
54787;SDS011;59598;48.112;16.280;2023-09-12T13:50:38;5.82;;;5.32;;
54787;SDS011;59598;48.112;16.280;2023-09-12T13:53:15;6.43;;;4.82;;
54787;SDS011;59598;48.112;16.280;2023-09-12T13:55:46;4.93;;;4.38;;
54787;SDS011;59598;48.112;16.280;2023-09-12T13:58:20;5.85;;;4.75;;
54787;SDS011;59598;48.112;16.280;2023-09-12T14:00:51;5.25;;;4.75;;
54787;SDS011;59598;48.112;16.280;2023-09-12T14:03:22;5.75;;;4.78;;
54787;SDS011;59598;48.112;16.280;2023-09-12T14:05:54;8.60;;;4.47;;
54787;SDS011;59598;48.112;16.280;2023-09-12T14:08:25;6.75;;;4.63;;
54787;SDS011;59598;48.112;16.280;2023-09-12T14:10:56;6.88;;;4.78;;
54787;SDS011;59598;48.112;16.280;2023-09-12T14:13:27;7.72;;;4.25;;
54787;SDS011;59598;48.112;16.280;2023-09-12T14:15:58;8.07;;;4.30;;
54787;SDS011;59598;48.112;16.280;2023-09-12T14:18:30;4.57;;;4.18;;
54787;SDS011;59598;48.112;16.280;2023-09-12T14:21:01;9.35;;;4.75;;
54787;SDS011;59598;48.112;16.280;2023-09-12T14:23:32;5.20;;;4.70;;
54787;SDS011;59598;48.112;16.280;2023-09-12T14:26:07;7.97;;;4.97;;
54787;SDS011;59598;48.112;16.280;2023-09-12T14:31:11;5.80;;;4.15;;
54787;SDS011;59598;48.112;16.280;2023-09-12T14:33:44;6.35;;;4.78;;
54787;SDS011;59598;48.112;16.280;2023-09-12T14:36:22;6.43;;;5.00;;
54787;SDS011;59598;48.112;16.280;2023-09-12T14:38:56;5.95;;;4.55;;
54787;SDS011;59598;48.112;16.280;2023-09-12T14:41:27;8.57;;;5.38;;
54787;SDS011;59598;48.112;16.280;2023-09-12T14:44:01;6.55;;;4.60;;
54787;SDS011;59598;48.112;16.280;2023-09-12T14:46:32;6.97;;;4.55;;
54787;SDS011;59598;48.112;16.280;2023-09-12T14:49:03;6.13;;;4.95;;
54787;SDS011;59598;48.112;16.280;2023-09-12T14:51:35;7.22;;;5.10;;
54787;SDS011;59598;48.112;16.280;2023-09-12T14:54:06;6.68;;;4.82;;
54787;SDS011;59598;48.112;16.280;2023-09-12T14:56:42;5.75;;;4.78;;
54787;SDS011;59598;48.112;16.280;2023-09-12T14:59:14;6.85;;;4.72;;
54787;SDS011;59598;48.112;16.280;2023-09-12T15:04:18;7.63;;;5.43;;
54787;SDS011;59598;48.112;16.280;2023-09-12T15:06:49;10.65;;;5.47;;
54787;SDS011;59598;48.112;16.280;2023-09-12T15:09:21;5.43;;;4.90;;
54787;SDS011;59598;48.112;16.280;2023-09-12T15:11:52;7.03;;;5.00;;
54787;SDS011;59598;48.112;16.280;2023-09-12T15:14:23;8.13;;;4.80;;
54787;SDS011;59598;48.112;16.280;2023-09-12T15:16:54;6.25;;;5.18;;
54787;SDS011;59598;48.112;16.280;2023-09-12T15:19:29;5.93;;;5.20;;
54787;SDS011;59598;48.112;16.280;2023-09-12T15:22:01;7.28;;;5.28;;
54787;SDS011;59598;48.112;16.280;2023-09-12T15:24:32;7.45;;;4.95;;
54787;SDS011;59598;48.112;16.280;2023-09-12T15:27:03;5.38;;;4.38;;
54787;SDS011;59598;48.112;16.280;2023-09-12T15:29:35;8.18;;;4.97;;
54787;SDS011;59598;48.112;16.280;2023-09-12T15:32:06;6.68;;;5.60;;
54787;SDS011;59598;48.112;16.280;2023-09-12T15:34:37;6.43;;;5.10;;
54787;SDS011;59598;48.112;16.280;2023-09-12T15:37:14;6.50;;;5.18;;
54787;SDS011;59598;48.112;16.280;2023-09-12T15:39:45;6.05;;;5.10;;